createdAt,value
2022-08-05T00:00:03.063Z,0
2022-08-05T00:03:03.081Z,0
2022-08-05T00:06:05.298Z,0
2022-08-05T00:09:03.006Z,0
2022-08-05T00:12:03.052Z,0.02
2022-08-05T00:15:13.932Z,0.01
2022-08-05T00:18:03.018Z,0
2022-08-05T00:21:03.060Z,0
2022-08-05T00:24:05.241Z,0
2022-08-05T00:27:04.580Z,0
2022-08-05T00:30:03.462Z,0
2022-08-05T00:33:03.070Z,0.23
2022-08-05T00:36:15.256Z,0.31
2022-08-05T00:39:03.079Z,0.27
2022-08-05T00:42:03.042Z,0.27
2022-08-05T00:45:03.071Z,0.67
2022-08-05T00:48:05.845Z,0.59
2022-08-05T00:51:08.723Z,0.45
2022-08-05T00:54:03.266Z,0.34
2022-08-05T00:57:03.065Z,0.6
2022-08-05T01:00:03.073Z,0.47
2022-08-05T01:03:03.090Z,0.44
2022-08-05T01:06:03.891Z,0.06
2022-08-05T01:09:03.189Z,0.06
2022-08-05T01:12:09.422Z,0.16
2022-08-05T01:15:03.959Z,0.29
2022-08-05T01:18:03.090Z,0.14
2022-08-05T01:21:03.093Z,0.2
2022-08-05T01:24:03.087Z,0.01
2022-08-05T01:27:12.208Z,0
2022-08-05T01:30:03.103Z,0
2022-08-05T01:33:03.115Z,0
2022-08-05T01:36:03.095Z,0
2022-08-05T01:39:03.175Z,0
2022-08-05T01:42:03.162Z,0.01
2022-08-05T01:45:03.392Z,0.08
2022-08-05T01:48:03.103Z,0
2022-08-05T01:51:08.671Z,0
2022-08-05T01:54:03.140Z,0
2022-08-05T01:58:08.838Z,0
2022-08-05T02:00:03.133Z,0.07
2022-08-05T02:03:03.480Z,0.01
2022-08-05T02:06:03.517Z,0.09
2022-08-05T02:09:03.109Z,0
2022-08-05T02:12:03.150Z,0.11
2022-08-05T02:15:03.296Z,0.07
2022-08-05T02:18:29.063Z,0
2022-08-05T02:21:03.127Z,0
2022-08-05T02:24:03.182Z,0.21
2022-08-05T02:27:09.186Z,0.19
2022-08-05T02:30:03.160Z,0.1
2022-08-05T02:33:03.151Z,0.2
2022-08-05T02:36:03.185Z,0.28
2022-08-05T02:39:03.213Z,0.18
2022-08-05T02:42:03.202Z,0.15
2022-08-05T02:45:03.175Z,0.05
2022-08-05T02:48:07.242Z,0.05
2022-08-05T02:51:03.202Z,0.11
2022-08-05T02:54:03.458Z,0.2
2022-08-05T02:57:03.175Z,0.37
2022-08-05T03:00:03.197Z,0.36
2022-08-05T03:03:03.157Z,0.77
2022-08-05T03:06:53.127Z,0.86
2022-08-05T03:09:03.186Z,1.04
2022-08-05T03:12:03.199Z,0.68
2022-08-05T03:15:03.291Z,0.7
2022-08-05T03:18:03.309Z,0.81
2022-08-05T03:21:03.322Z,1.08
2022-08-05T03:24:03.379Z,1.06
2022-08-05T03:27:03.324Z,1.08
2022-08-05T03:30:07.092Z,1.05
2022-08-05T03:33:03.365Z,1.03
2022-08-05T03:36:03.362Z,0.68
2022-08-05T03:39:03.295Z,0.56
2022-08-05T03:42:03.249Z,0.78
2022-08-05T03:45:03.456Z,0.73
2022-08-05T03:48:03.326Z,0.68
2022-08-05T03:51:06.945Z,0.34
2022-08-05T03:54:59.478Z,0.58
2022-08-05T03:57:16.160Z,0.56
2022-08-05T04:00:03.238Z,0.48
2022-08-05T04:03:03.327Z,0.36
2022-08-05T04:06:03.250Z,0.41
2022-08-05T04:09:03.245Z,0.51
2022-08-05T04:12:03.230Z,0.33
2022-08-05T04:15:03.262Z,0.69
2022-08-05T04:18:03.284Z,0.58
2022-08-05T04:21:03.855Z,0.66
2022-08-05T04:24:06.126Z,0.59
2022-08-05T04:27:03.251Z,0.57
2022-08-05T04:30:03.631Z,0.71
2022-08-05T04:33:03.242Z,0.64
2022-08-05T04:36:09.382Z,0.74
2022-08-05T04:39:03.353Z,0.69
2022-08-05T04:42:03.737Z,0.69
2022-08-05T04:45:03.288Z,0.59
2022-08-05T04:48:03.261Z,0.89
2022-08-05T04:51:11.296Z,0.44
2022-08-05T04:54:03.309Z,0.51
2022-08-05T04:57:03.295Z,0.37
2022-08-05T05:00:03.276Z,0.5
2022-08-05T05:03:03.311Z,0.4
2022-08-05T05:06:35.732Z,0.38
2022-08-05T05:09:05.571Z,0.19
2022-08-05T05:12:03.349Z,0.14
2022-08-05T05:15:03.633Z,0.43
2022-08-05T05:18:03.434Z,0.68
2022-08-05T05:21:03.681Z,0.51
2022-08-05T05:24:04.354Z,0.32
2022-08-05T05:27:03.312Z,0.4
2022-08-05T05:30:05.143Z,0.36
2022-08-05T05:33:03.690Z,0.64
2022-08-05T05:36:03.356Z,0.94
2022-08-05T05:39:03.684Z,0.75
2022-08-05T05:42:03.321Z,0.91
2022-08-05T05:45:03.327Z,1.09
2022-08-05T05:48:04.885Z,0.88
2022-08-05T05:51:05.117Z,0.85
2022-08-05T05:54:03.374Z,1.12
2022-08-05T05:57:03.350Z,0.81
2022-08-05T06:00:03.316Z,0.89
2022-08-05T06:03:03.412Z,1.47
2022-08-05T06:06:03.377Z,1.04
2022-08-05T06:09:04.016Z,1.22
2022-08-05T06:12:03.350Z,1.18
2022-08-05T06:15:03.392Z,1.67
2022-08-05T06:18:03.340Z,1.65
2022-08-05T06:21:03.392Z,1.21
2022-08-05T06:24:03.385Z,1.34
2022-08-05T06:27:03.968Z,1.16
2022-08-05T06:30:18.050Z,0.99
2022-08-05T06:33:03.387Z,1.04
2022-08-05T06:36:08.120Z,0.91
2022-08-05T06:39:03.413Z,0.95
2022-08-05T06:42:03.976Z,1.17
2022-08-05T06:45:05.417Z,0.86
2022-08-05T06:48:12.202Z,0.99
2022-08-05T06:51:03.392Z,1.28
2022-08-05T06:54:03.412Z,1.08
2022-08-05T06:57:14.045Z,1.09
2022-08-05T07:00:03.418Z,1.03
2022-08-05T07:03:03.395Z,1.15
2022-08-05T07:06:05.596Z,0.86
2022-08-05T07:09:03.897Z,1.16
2022-08-05T07:12:03.422Z,1.34
2022-08-05T07:15:03.409Z,0.93
2022-08-05T07:18:07.368Z,1.03
2022-08-05T07:21:04.609Z,0.95
2022-08-05T07:24:03.455Z,0.96
2022-08-05T07:27:03.443Z,0.84
2022-08-05T07:30:21.791Z,0.69
2022-08-05T07:33:04.935Z,1.02
2022-08-05T07:36:20.521Z,0.95
2022-08-05T07:39:03.490Z,0.7
2022-08-05T07:42:07.580Z,0.93
2022-08-05T07:45:03.496Z,1
2022-08-05T07:48:03.441Z,0.76
2022-08-05T07:51:03.455Z,1.21
2022-08-05T07:54:03.443Z,1.12
2022-08-05T07:57:15.019Z,1.17
2022-08-05T08:00:03.513Z,1.2
2022-08-05T08:03:13.503Z,1.75
2022-08-05T08:06:03.456Z,1.54
2022-08-05T08:09:03.487Z,1.58
2022-08-05T08:12:09.516Z,1.16
2022-08-05T08:15:04.440Z,1.12
2022-08-05T08:18:05.019Z,1.48
2022-08-05T08:21:04.150Z,1.58
2022-08-05T08:24:05.222Z,1.73
2022-08-05T08:27:03.516Z,1.34
2022-08-05T08:30:20.417Z,1.52
2022-08-05T08:33:04.709Z,1.37
2022-08-05T08:36:18.703Z,1.73
2022-08-05T08:39:03.556Z,1.42
2022-08-05T08:42:06.509Z,1.23
2022-08-05T08:45:21.922Z,1.72
2022-08-05T08:48:06.523Z,1.64
2022-08-05T08:51:21.974Z,2.27
2022-08-05T08:54:03.506Z,1.86
2022-08-05T08:57:03.506Z,2.36
2022-08-05T09:00:04.343Z,2.11
2022-08-05T09:03:03.543Z,1.79
2022-08-05T09:06:08.228Z,1.38
2022-08-05T09:09:03.569Z,1.67
2022-08-05T09:12:13.511Z,1.44
2022-08-05T09:15:05.888Z,1.54
2022-08-05T09:18:03.533Z,1.67
2022-08-05T09:21:03.551Z,1.57
2022-08-05T09:24:03.542Z,1.64
2022-08-05T09:27:03.526Z,1.71
2022-08-05T09:30:06.522Z,1.5
2022-08-05T09:33:04.530Z,2
2022-08-05T09:36:11.658Z,1.5
2022-08-05T09:39:03.552Z,1.12
2022-08-05T09:42:03.625Z,0.88
2022-08-05T09:45:18.025Z,1.46
2022-08-05T09:48:03.535Z,1.32
2022-08-05T09:51:03.552Z,1.47
2022-08-05T09:54:03.552Z,0.88
2022-08-05T09:57:03.592Z,1.24
2022-08-05T10:00:07.381Z,1.4
2022-08-05T10:03:03.619Z,1.26
2022-08-05T10:06:07.352Z,1.22
2022-08-05T10:09:03.605Z,1.14
2022-08-05T10:12:07.297Z,1.34
2022-08-05T10:15:03.626Z,1.71
2022-08-05T10:18:03.612Z,1.62
2022-08-05T10:21:06.097Z,1.17
2022-08-05T10:24:06.292Z,0.98
2022-08-05T10:27:03.608Z,0.89
2022-08-05T10:30:07.444Z,1.2
2022-08-05T10:33:03.654Z,0.86
2022-08-05T10:36:03.618Z,0.86
2022-08-05T10:39:05.185Z,0.69
2022-08-05T10:42:03.597Z,0.61
2022-08-05T10:45:09.703Z,0.77
2022-08-05T10:48:29.345Z,0.44
2022-08-05T10:51:04.046Z,0.75
2022-08-05T10:54:05.738Z,0.61
2022-08-05T10:57:03.618Z,0.59
2022-08-05T11:00:10.084Z,0.96
2022-08-05T11:03:24.005Z,0.94
2022-08-05T11:06:03.768Z,0.69
2022-08-05T11:09:03.607Z,0.89
2022-08-05T11:12:03.648Z,0.93
2022-08-05T11:15:12.043Z,0.48
2022-08-05T11:18:03.723Z,0.17
2022-08-05T11:21:06.467Z,0.97
2022-08-05T11:24:14.844Z,0.86
2022-08-05T11:27:03.647Z,0.24
2022-08-05T11:30:03.684Z,0.29
2022-08-05T11:33:03.675Z,0.61
2022-08-05T11:36:07.829Z,0.37
2022-08-05T11:39:03.636Z,0.61
2022-08-05T11:42:04.462Z,0.79
2022-08-05T11:45:05.309Z,0.69
2022-08-05T11:48:03.644Z,0.42
2022-08-05T11:51:03.673Z,0.42
2022-08-05T11:54:03.641Z,0.89
2022-08-05T11:57:07.829Z,1.2
2022-08-05T12:00:03.630Z,1
2022-08-05T12:03:03.734Z,0.86
2022-08-05T12:06:05.705Z,0.61
2022-08-05T12:09:03.669Z,0.81
2022-08-05T12:12:03.690Z,0.61
2022-08-05T12:15:03.677Z,0.47
2022-08-05T12:18:10.390Z,0.42
2022-08-05T12:21:03.686Z,1.13
2022-08-05T12:24:04.716Z,0.62
2022-08-05T12:27:09.580Z,0.39
2022-08-05T12:30:03.712Z,0.99
2022-08-05T12:33:07.094Z,1.07
2022-08-05T12:36:03.734Z,0.57
2022-08-05T12:39:03.757Z,0.44
2022-08-05T12:42:03.727Z,1.1
2022-08-05T12:45:03.708Z,0.88
2022-08-05T12:48:17.147Z,0.71
2022-08-05T12:51:03.701Z,1.05
2022-08-05T12:54:03.823Z,1.1
2022-08-05T12:57:03.870Z,0.95
2022-08-05T13:00:08.594Z,0.43
2022-08-05T13:03:03.733Z,0.61
2022-08-05T13:06:03.744Z,0.99
2022-08-05T13:09:03.696Z,0.65
2022-08-05T13:12:03.772Z,0.87
2022-08-05T13:15:05.795Z,0.87
2022-08-05T13:18:03.738Z,0.56
2022-08-05T13:21:03.748Z,0.38
2022-08-05T13:24:04.375Z,0.42
2022-08-05T13:27:03.747Z,0.55
2022-08-05T13:30:33.343Z,0.91
2022-08-05T13:33:03.831Z,0.5
2022-08-05T13:36:05.194Z,0.81
2022-08-05T13:39:08.578Z,0.98
2022-08-05T13:42:03.729Z,0.68
2022-08-05T13:45:03.732Z,0.93
2022-08-05T13:48:09.024Z,0.88
2022-08-05T13:51:03.717Z,0.7
2022-08-05T13:54:03.765Z,0.88
2022-08-05T13:57:03.796Z,0.93
2022-08-05T14:00:03.784Z,0.82
2022-08-05T14:03:03.849Z,1.17
2022-08-05T14:06:24.885Z,1.22
2022-08-05T14:09:03.776Z,0.9
2022-08-05T14:12:04.587Z,0.84
2022-08-05T14:15:06.080Z,1.02
2022-08-05T14:18:03.833Z,0.49
2022-08-05T14:21:23.923Z,0.52
2022-08-05T14:24:03.826Z,0.79
2022-08-05T14:27:16.997Z,0.67
2022-08-05T14:30:04.273Z,0.77
2022-08-05T14:33:03.747Z,0.85
2022-08-05T14:36:03.803Z,1.08
2022-08-05T14:39:03.847Z,0.84
2022-08-05T14:42:19.760Z,0.68
2022-08-05T14:45:03.826Z,0.58
2022-08-05T14:48:05.142Z,0.5
2022-08-05T14:51:03.804Z,1.06
2022-08-05T14:54:25.821Z,0.87
2022-08-05T14:57:05.242Z,0.87
2022-08-05T15:00:03.783Z,1.12
2022-08-05T15:03:03.837Z,0.45
2022-08-05T15:06:07.269Z,0.28
2022-08-05T15:09:04.009Z,0.13
2022-08-05T15:12:04.061Z,0.42
2022-08-05T15:15:03.821Z,0.23
2022-08-05T15:18:05.783Z,0.52
2022-08-05T15:21:07.242Z,1.02
2022-08-05T15:24:03.822Z,0.69
2022-08-05T15:27:03.829Z,0.82
2022-08-05T15:30:03.864Z,1.05
2022-08-05T15:33:03.835Z,1
2022-08-05T15:36:04.008Z,0.5
2022-08-05T15:40:42.863Z,0.65
2022-08-05T15:42:50.204Z,0.56
2022-08-05T15:45:03.877Z,0.45
2022-08-05T15:48:03.916Z,0.63
2022-08-05T15:51:05.602Z,0.79
2022-08-05T15:54:03.857Z,0.66
2022-08-05T15:57:03.896Z,0.96
2022-08-05T16:00:03.870Z,1.17
2022-08-05T16:03:03.919Z,1
2022-08-05T16:06:03.864Z,0.95
2022-08-05T16:09:03.865Z,1.24
2022-08-05T16:12:03.876Z,1.07
2022-08-05T16:15:03.931Z,1.51
2022-08-05T16:18:04.176Z,1.24
2022-08-05T16:21:04.431Z,1.67
2022-08-05T16:24:03.863Z,1.25
2022-08-05T16:27:03.894Z,1.14
2022-08-05T16:30:03.929Z,1.19
2022-08-05T16:33:03.868Z,1.08
2022-08-05T16:36:03.990Z,1.17
2022-08-05T16:39:03.984Z,0.98
2022-08-05T16:42:13.294Z,1.65
2022-08-05T16:45:06.138Z,2.26
2022-08-05T16:48:03.946Z,1.47
2022-08-05T16:51:08.894Z,1.78
2022-08-05T16:54:11.304Z,2.35
2022-08-05T16:57:03.943Z,1.83
2022-08-05T17:00:07.461Z,1.72
2022-08-05T17:03:03.924Z,1.7
2022-08-05T17:06:03.924Z,1.82
2022-08-05T17:09:03.907Z,2.02
2022-08-05T17:12:03.897Z,1.77
2022-08-05T17:15:06.412Z,1.44
2022-08-05T17:18:03.918Z,1.78
2022-08-05T17:21:03.975Z,1.42
2022-08-05T17:24:08.213Z,1.66
2022-08-05T17:27:03.941Z,1.5
2022-08-05T17:30:04.026Z,1.37
2022-08-05T17:33:03.987Z,1.42
2022-08-05T17:36:07.189Z,1.49
2022-08-05T17:39:03.946Z,1.4
2022-08-05T17:42:18.766Z,1.37
2022-08-05T17:45:08.101Z,1.48
2022-08-05T17:48:03.967Z,1.11
2022-08-05T17:51:09.078Z,1.26
2022-08-05T17:54:03.979Z,1.44
2022-08-05T17:57:04.049Z,1.5
2022-08-05T18:00:05.699Z,1.48
2022-08-05T18:03:03.977Z,1.71
2022-08-05T18:06:04.018Z,1.25
2022-08-05T18:09:04.072Z,1.2
2022-08-05T18:12:03.979Z,1.61
2022-08-05T18:15:04.038Z,1.64
2022-08-05T18:18:07.918Z,1.61
2022-08-05T18:21:03.947Z,1.26
2022-08-05T18:24:04.003Z,1.11
2022-08-05T18:27:03.984Z,0.97
2022-08-05T18:30:04.004Z,1.21
2022-08-05T18:33:04.000Z,1.34
2022-08-05T18:36:08.114Z,1.66
2022-08-05T18:39:04.066Z,1.35
2022-08-05T18:42:07.743Z,1.21
2022-08-05T18:45:03.982Z,1.41
2022-08-05T18:48:04.029Z,1.86
2022-08-05T18:52:03.491Z,1.23
2022-08-05T18:54:03.997Z,1.1
2022-08-05T18:57:04.018Z,1.43
2022-08-05T19:00:07.685Z,1.11
2022-08-05T19:03:04.663Z,1.18
2022-08-05T19:06:06.472Z,1.15
2022-08-05T19:09:04.123Z,1
2022-08-05T19:12:04.051Z,1.01
2022-08-05T19:15:04.008Z,0.84
2022-08-05T19:18:08.947Z,1.02
2022-08-05T19:21:04.750Z,1.06
2022-08-05T19:24:08.775Z,0.97
2022-08-05T19:27:04.355Z,0.62
2022-08-05T19:30:04.062Z,0.72
2022-08-05T19:33:04.427Z,0.77
2022-08-05T19:36:05.903Z,0.62
2022-08-05T19:39:04.103Z,0.52
2022-08-05T19:42:06.693Z,0.76
2022-08-05T19:45:05.819Z,0.63
2022-08-05T19:48:04.077Z,0.78
2022-08-05T19:51:04.098Z,0.93
2022-08-05T19:54:06.742Z,1.09
2022-08-05T19:57:06.337Z,0.83
2022-08-05T20:00:04.590Z,1.39
2022-08-05T20:03:05.331Z,1.37
2022-08-05T20:06:11.564Z,1.18
2022-08-05T20:09:06.337Z,1.76
2022-08-05T20:12:04.099Z,1.17
2022-08-05T20:15:04.107Z,1.29
2022-08-05T20:18:04.075Z,1.31
2022-08-05T20:21:04.418Z,1.38
2022-08-05T20:24:04.140Z,1.45
2022-08-05T20:27:04.083Z,1.59
2022-08-05T20:30:04.131Z,1.54
2022-08-05T20:33:04.088Z,1.08
2022-08-05T20:36:04.145Z,1.5
2022-08-05T20:39:04.183Z,1.35
2022-08-05T20:42:04.090Z,1.16
2022-08-05T20:45:04.138Z,1.33
2022-08-05T20:48:04.173Z,1.44
2022-08-05T20:51:07.943Z,1.33
2022-08-05T20:54:04.143Z,1.45
2022-08-05T20:57:04.139Z,1.27
2022-08-05T21:00:10.821Z,2.28
2022-08-05T21:03:04.123Z,1.52
2022-08-05T21:06:04.159Z,1.98
2022-08-05T21:09:04.158Z,1.92
2022-08-05T21:12:07.893Z,2.18
2022-08-05T21:15:04.165Z,1.57
2022-08-05T21:18:04.176Z,2.25
2022-08-05T21:21:04.163Z,2.19
2022-08-05T21:24:04.375Z,1.6
2022-08-05T21:27:04.132Z,1.55
2022-08-05T21:30:04.185Z,1.01
2022-08-05T21:33:07.182Z,1.56
2022-08-05T21:36:04.133Z,1.61
2022-08-05T21:39:04.229Z,1.51
2022-08-05T21:42:04.184Z,0.99
2022-08-05T21:45:04.130Z,1.31
2022-08-05T21:48:06.393Z,1.12
2022-08-05T21:51:04.201Z,1.12
2022-08-05T21:54:04.215Z,1.17
2022-08-05T21:57:30.131Z,1.17
2022-08-05T22:00:05.636Z,0.65
2022-08-05T22:03:04.200Z,0.93
2022-08-05T22:06:05.019Z,0.73
2022-08-05T22:09:13.045Z,0.99
2022-08-05T22:12:09.843Z,0.87
2022-08-05T22:15:04.183Z,1.49
2022-08-05T22:18:04.215Z,0.89
2022-08-05T22:21:04.899Z,0.36
2022-08-05T22:24:09.239Z,0.34
2022-08-05T22:27:06.685Z,0.37
2022-08-05T22:30:04.239Z,0.61
2022-08-05T22:33:04.211Z,0.71
2022-08-05T22:36:04.238Z,0.33
2022-08-05T22:39:09.299Z,0.15
2022-08-05T22:42:12.023Z,0.67
2022-08-05T22:45:04.206Z,0.76
2022-08-05T22:48:04.255Z,0.76
2022-08-05T22:51:06.737Z,0.53
2022-08-05T22:54:04.273Z,0.59
2022-08-05T22:57:04.258Z,0.68
2022-08-05T23:00:04.214Z,0.91
2022-08-05T23:03:04.460Z,0.69
2022-08-05T23:06:04.261Z,0.71
2022-08-05T23:09:14.156Z,0.63
2022-08-05T23:12:04.259Z,0.55
2022-08-05T23:15:08.612Z,0.34
2022-08-05T23:18:05.950Z,0.57
2022-08-05T23:21:04.249Z,0.44
2022-08-05T23:24:11.009Z,0.56
2022-08-05T23:27:04.247Z,0.8
2022-08-05T23:30:08.126Z,0.48
2022-08-05T23:33:04.285Z,0.44
2022-08-05T23:36:04.284Z,0.28
2022-08-05T23:39:04.312Z,0.41
2022-08-05T23:42:04.275Z,0.27
2022-08-05T23:45:04.266Z,0.32
2022-08-05T23:48:04.482Z,0.39
2022-08-05T23:51:04.298Z,0.39
2022-08-05T23:54:04.306Z,0.24
2022-08-05T23:57:04.845Z,0.27
